Terminal Aerodrome Forecast
Issued by NWS

Home | Current Version | Previous Version | Text Only | Print | Product List | Glossary On
Versions: 1 2 3 4 5 6 7 8 9 10 11 12 13 14 15 16
617
FTUS41 KPBZ 110948 AAA
TAFDUJ
TAF AMD
KDUJ 110948Z 1110/1206 26007KT P6SM VCSH OVC025
     FM111100 26006KT P6SM BKN025
     FM112000 VRB04KT P6SM FEW025 OVC050
     FM120200 17005KT P6SM VCSH BKN035=

USA.gov is the U.S. government's official web portal to all federal, state and local government web resources and services.